Time;durP1;ratioP1;P1;durP2;ratioP2;P2;SDS_P1;SDS_P2;PMS_P1;PMS_P2;Temp;Humidity;BMP_temperature;BMP_pressure;BME280_temperature;BME280_humidity;BME280_pressure;Samples;Min_cycle;Max_cycle;Signal;HPM_P1;HPM_P2
2022/06/09 00:00:12;;;;;;;21.92;13.95;;;14.80;99.90;;;;;;5049515;28;20113;-40
2022/06/09 00:02:43;;;;;;;25.77;14.77;;;14.80;99.90;;;;;;5061488;28;20045;-41
2022/06/09 00:05:10;;;;;;;24.55;14.57;;;14.90;99.90;;;;;;5046112;28;20056;-40
2022/06/09 00:07:36;;;;;;;23.63;14.88;;;14.90;99.90;;;;;;5033977;28;20040;-41
2022/06/09 00:10:08;;;;;;;27.90;15.50;;;14.90;99.90;;;;;;5069117;28;20060;-40
2022/06/09 00:12:35;;;;;;;38.15;16.17;;;14.90;99.90;;;;;;5061819;28;20049;-40
2022/06/09 00:15:04;;;;;;;36.10;16.23;;;14.80;99.90;;;;;;5054698;28;20049;-39
2022/06/09 00:17:30;;;;;;;35.00;17.25;;;14.90;99.90;;;;;;5033597;28;20098;-41
2022/06/09 00:19:56;;;;;;;35.05;17.50;;;14.80;99.90;;;;;;5067802;28;20049;-40
2022/06/09 00:22:22;;;;;;;38.60;16.20;;;14.90;99.90;;;;;;5066112;28;20057;-40
2022/06/09 00:24:47;;;;;;;44.22;17.30;;;14.90;99.90;;;;;;5049900;28;20052;-40
2022/06/09 00:27:13;;;;;;;36.00;16.50;;;14.90;99.90;;;;;;5052813;28;20086;-40
2022/06/09 00:29:39;;;;;;;39.45;15.52;;;14.80;99.90;;;;;;5047556;28;20040;-40
2022/06/09 00:32:05;;;;;;;38.58;15.95;;;14.80;99.90;;;;;;5068212;28;20049;-41
2022/06/09 00:34:31;;;;;;;36.88;15.95;;;14.90;99.90;;;;;;5049776;28;20052;-40
2022/06/09 00:36:57;;;;;;;41.50;14.93;;;14.80;99.90;;;;;;5054786;28;20067;-42
2022/06/09 00:39:22;;;;;;;36.08;15.38;;;14.80;99.90;;;;;;5065420;28;20044;-41
2022/06/09 00:41:48;;;;;;;34.67;15.00;;;14.90;99.90;;;;;;5050973;28;20048;-40
2022/06/09 00:44:18;;;;;;;41.38;16.45;;;14.80;99.90;;;;;;5047047;28;20048;-40
2022/06/09 00:46:45;;;;;;;39.88;15.32;;;14.80;99.90;;;;;;5052186;28;20052;-40
2022/06/09 00:49:27;;;;;;;38.13;17.60;;;14.80;99.90;;;;;;5059449;28;20053;-40
2022/06/09 00:51:58;;;;;;;35.72;16.30;;;14.80;99.90;;;;;;5063045;28;20068;-40
2022/06/09 00:54:35;;;;;;;36.47;16.73;;;14.80;99.90;;;;;;5070408;28;20841;-40
2022/06/09 00:57:07;;;;;;;45.70;17.63;;;14.80;99.90;;;;;;5052742;28;20530;-39
2022/06/09 00:59:35;;;;;;;39.92;16.90;;;14.80;99.90;;;;;;5067372;28;20043;-40
2022/06/09 01:02:04;;;;;;;39.38;17.23;;;14.70;99.90;;;;;;5067386;28;20424;-39
2022/06/09 01:04:32;;;;;;;37.22;16.48;;;14.80;99.90;;;;;;5051939;28;20055;-40
2022/06/09 01:07:03;;;;;;;46.13;17.13;;;14.80;99.90;;;;;;5052814;28;20044;-39
2022/06/09 01:09:30;;;;;;;49.50;16.35;;;14.80;99.90;;;;;;5065346;28;20075;-40
2022/06/09 01:11:56;;;;;;;34.75;16.38;;;14.70;99.90;;;;;;5066599;28;20058;-40
2022/06/09 01:14:27;;;;;;;38.63;16.55;;;14.70;99.90;;;;;;5045846;28;20052;-39
2022/06/09 01:17:05;;;;;;;34.97;15.50;;;14.70;99.90;;;;;;5030137;28;20447;-40
2022/06/09 01:19:49;;;;;;;38.03;16.10;;;14.70;99.90;;;;;;5042042;28;20068;-40
2022/06/09 01:22:34;;;;;;;38.50;15.57;;;14.80;99.90;;;;;;5045458;28;20440;-40
2022/06/09 01:25:18;;;;;;;39.00;16.08;;;14.70;99.90;;;;;;5066767;28;20045;-40
2022/06/09 01:28:06;;;;;;;40.42;16.70;;;14.70;99.90;;;;;;5040621;28;20139;-41
2022/06/09 01:30:58;;;;;;;37.08;17.02;;;14.70;99.90;;;;;;5068640;28;20083;-41
2022/06/09 01:33:44;;;;;;;41.75;16.20;;;14.70;99.90;;;;;;5052830;28;20041;-39
2022/06/09 01:36:16;;;;;;;41.40;16.20;;;14.70;99.90;;;;;;5036159;28;20037;-41
2022/06/09 01:38:48;;;;;;;36.85;16.13;;;14.70;99.90;;;;;;5023113;28;20049;-40
2022/06/09 01:41:15;;;;;;;38.17;16.52;;;14.70;99.90;;;;;;5029250;28;20135;-40
2022/06/09 01:43:42;;;;;;;32.95;15.85;;;14.70;99.90;;;;;;5043292;28;20561;-40
2022/06/09 01:46:15;;;;;;;42.65;17.13;;;14.60;99.90;;;;;;5037707;28;20044;-41
2022/06/09 01:48:41;;;;;;;38.13;16.17;;;14.70;99.90;;;;;;5039411;28;20099;-40
2022/06/09 01:51:14;;;;;;;37.80;16.35;;;14.70;99.90;;;;;;5046768;28;20052;-40
2022/06/09 01:53:53;;;;;;;45.33;18.13;;;14.70;99.90;;;;;;5058534;28;20128;-40
2022/06/09 01:56:28;;;;;;;43.38;18.05;;;14.60;99.90;;;;;;5058339;28;20464;-40
2022/06/09 01:59:00;;;;;;;39.30;18.80;;;14.60;99.90;;;;;;5063592;28;20083;-40
2022/06/09 02:01:30;;;;;;;36.45;18.02;;;14.60;99.90;;;;;;5065703;28;20503;-41
2022/06/09 02:04:00;;;;;;;45.03;20.50;;;14.60;99.90;;;;;;5049078;28;20113;-40
2022/06/09 02:06:28;;;;;;;44.20;21.83;;;14.60;99.90;;;;;;5030973;28;20491;-41
2022/06/09 02:08:54;;;;;;;41.65;22.60;;;14.60;99.90;;;;;;5042288;28;20135;-39
2022/06/09 02:11:21;;;;;;;40.78;21.50;;;14.50;99.90;;;;;;5042370;28;20052;-40
2022/06/09 02:13:50;;;;;;;41.08;23.35;;;14.60;99.90;;;;;;5045323;28;20122;-40
2022/06/09 02:16:19;;;;;;;44.53;22.67;;;14.50;99.90;;;;;;5035338;28;20769;-41
2022/06/09 02:18:49;;;;;;;42.75;23.15;;;14.50;99.90;;;;;;5062395;28;20080;-40
2022/06/09 02:21:34;;;;;;;41.20;21.92;;;14.50;99.90;;;;;;5046052;28;20045;-40
2022/06/09 02:24:00;;;;;;;45.03;23.38;;;14.50;99.90;;;;;;5027333;28;20045;-40
2022/06/09 02:26:26;;;;;;;46.88;24.45;;;14.50;99.90;;;;;;5030995;28;20574;-41
2022/06/09 02:28:53;;;;;;;45.95;22.92;;;14.40;99.90;;;;;;5056518;28;20047;-41
2022/06/09 02:31:20;;;;;;;46.67;23.98;;;14.40;99.90;;;;;;5065944;28;20048;-40
2022/06/09 02:33:47;;;;;;;39.83;22.25;;;14.40;99.90;;;;;;5064822;28;20705;-40
2022/06/09 02:36:13;;;;;;;40.13;22.23;;;14.40;99.90;;;;;;5059283;28;20040;-41
2022/06/09 02:38:38;;;;;;;47.33;22.75;;;14.40;99.90;;;;;;5060036;28;20094;-40
2022/06/09 02:41:04;;;;;;;46.20;23.63;;;14.40;99.90;;;;;;5052241;28;20094;-40
2022/06/09 02:43:30;;;;;;;45.55;22.95;;;14.40;99.90;;;;;;5068484;28;20127;-40
2022/06/09 02:45:56;;;;;;;41.53;23.05;;;14.40;99.90;;;;;;5068844;28;20049;-40
2022/06/09 02:48:22;;;;;;;38.13;23.08;;;14.40;99.90;;;;;;5052014;28;20033;-40
2022/06/09 02:50:48;;;;;;;44.75;24.70;;;14.40;99.90;;;;;;5068934;28;20049;-40
2022/06/09 02:53:16;;;;;;;49.47;25.00;;;14.40;99.90;;;;;;5041728;28;20090;-40
2022/06/09 02:55:41;;;;;;;44.42;24.25;;;14.30;99.90;;;;;;5048783;28;20056;-41
2022/06/09 02:58:07;;;;;;;50.25;25.13;;;14.30;99.90;;;;;;5036895;28;20072;-40
2022/06/09 03:00:33;;;;;;;45.67;24.52;;;14.30;99.90;;;;;;5047024;28;20053;-40
2022/06/09 03:03:01;;;;;;;51.33;26.27;;;14.30;99.90;;;;;;5054982;28;20055;-41
2022/06/09 03:05:30;;;;;;;48.60;24.67;;;14.30;99.90;;;;;;5069004;28;20056;-40
2022/06/09 03:07:55;;;;;;;48.47;26.77;;;14.30;99.90;;;;;;5043945;28;20075;-41
2022/06/09 03:10:22;;;;;;;53.90;26.65;;;14.30;99.90;;;;;;5046446;28;20508;-40
2022/06/09 03:12:48;;;;;;;50.55;27.38;;;14.30;99.90;;;;;;5052059;28;20581;-40
2022/06/09 03:15:17;;;;;;;45.17;25.52;;;14.30;99.90;;;;;;5068101;28;20571;-40
2022/06/09 03:17:43;;;;;;;56.85;28.38;;;14.40;99.90;;;;;;5052947;28;20591;-40
2022/06/09 03:20:15;;;;;;;51.97;26.75;;;14.30;99.90;;;;;;5072565;28;20045;-40
2022/06/09 03:22:41;;;;;;;49.38;26.60;;;14.30;99.90;;;;;;5063202;28;20458;-40
2022/06/09 03:25:07;;;;;;;46.28;26.27;;;14.30;99.90;;;;;;5048688;28;20036;-40
2022/06/09 03:27:32;;;;;;;54.00;28.83;;;14.30;99.90;;;;;;5032239;28;20052;-41
2022/06/09 03:30:01;;;;;;;54.03;29.02;;;14.30;99.90;;;;;;5053100;28;20045;-40
2022/06/09 03:32:27;;;;;;;55.15;29.35;;;14.30;99.90;;;;;;5046587;28;20127;-40
2022/06/09 03:34:53;;;;;;;58.70;28.67;;;14.30;99.90;;;;;;5047362;28;20520;-40
2022/06/09 03:37:19;;;;;;;56.78;29.20;;;14.30;99.90;;;;;;5033084;28;20048;-40
2022/06/09 03:39:46;;;;;;;58.00;30.33;;;14.30;99.90;;;;;;5048770;28;20512;-41
2022/06/09 03:42:11;;;;;;;56.85;28.77;;;14.30;99.90;;;;;;5047681;28;20080;-39
2022/06/09 03:44:37;;;;;;;53.30;28.73;;;14.30;99.90;;;;;;5050913;28;20110;-40
2022/06/09 03:47:03;;;;;;;55.40;27.67;;;14.30;99.90;;;;;;5014159;28;20040;-40
2022/06/09 03:49:28;;;;;;;47.30;27.30;;;14.20;99.90;;;;;;5065387;28;20377;-40
2022/06/09 03:51:54;;;;;;;50.58;26.58;;;14.20;99.90;;;;;;5067179;28;20044;-40
2022/06/09 03:54:20;;;;;;;52.00;28.67;;;14.20;99.90;;;;;;5065825;28;20044;-40
2022/06/09 03:56:45;;;;;;;53.28;28.50;;;14.20;99.90;;;;;;5043779;28;20057;-41
2022/06/09 03:59:11;;;;;;;49.03;26.27;;;14.20;99.90;;;;;;5049620;28;20044;-40
2022/06/09 04:01:37;;;;;;;51.58;27.38;;;14.20;99.90;;;;;;5051303;28;20397;-42
2022/06/09 04:04:03;;;;;;;56.80;27.05;;;14.20;99.90;;;;;;5063822;28;20060;-42
2022/06/09 04:06:30;;;;;;;53.80;28.02;;;14.20;99.90;;;;;;5054282;28;20048;-43
2022/06/09 04:08:55;;;;;;;47.38;26.42;;;14.20;99.90;;;;;;5063706;28;20059;-42
2022/06/09 04:11:22;;;;;;;45.80;24.80;;;14.20;99.90;;;;;;5066576;28;20139;-42
2022/06/09 04:13:49;;;;;;;48.70;26.30;;;14.20;99.90;;;;;;5067787;28;20052;-40
2022/06/09 04:16:23;;;;;;;41.45;24.85;;;14.20;99.90;;;;;;5060374;28;20135;-41
2022/06/09 04:18:53;;;;;;;43.58;25.00;;;14.20;99.90;;;;;;5046779;28;20044;-42
2022/06/09 04:21:19;;;;;;;38.75;23.45;;;14.20;99.90;;;;;;5045934;28;20114;-41
2022/06/09 04:23:45;;;;;;;46.78;25.23;;;14.30;99.90;;;;;;5064289;28;20102;-41
2022/06/09 04:26:17;;;;;;;41.10;25.42;;;14.30;99.90;;;;;;5063013;28;20036;-42
2022/06/09 04:28:44;;;;;;;39.10;24.55;;;14.20;99.90;;;;;;5066995;28;20056;-42
2022/06/09 04:31:11;;;;;;;43.97;26.95;;;14.20;99.90;;;;;;5066310;28;20131;-41
2022/06/09 04:33:37;;;;;;;44.22;27.13;;;14.20;99.90;;;;;;5053381;28;20057;-42
2022/06/09 04:36:05;;;;;;;43.65;26.33;;;14.20;99.90;;;;;;5045937;28;20060;-42
2022/06/09 04:38:31;;;;;;;43.08;26.83;;;14.20;99.90;;;;;;5031691;28;20393;-42
2022/06/09 04:40:56;;;;;;;42.95;27.08;;;14.20;99.90;;;;;;5046974;28;20079;-42
2022/06/09 04:43:22;;;;;;;44.83;27.85;;;14.20;99.90;;;;;;5042245;28;20052;-41
2022/06/09 04:45:48;;;;;;;43.83;28.30;;;14.20;99.90;;;;;;5046378;28;20040;-41
2022/06/09 04:48:14;;;;;;;46.75;28.63;;;14.20;99.90;;;;;;5042758;28;20101;-40
2022/06/09 04:50:42;;;;;;;49.40;29.00;;;14.20;99.90;;;;;;5068852;28;20385;-40
2022/06/09 04:53:09;;;;;;;45.20;28.65;;;14.20;99.90;;;;;;5065800;28;20048;-40
2022/06/09 04:55:38;;;;;;;45.30;28.98;;;14.20;99.90;;;;;;5065770;28;20063;-41
2022/06/09 04:58:04;;;;;;;37.17;27.23;;;14.20;99.90;;;;;;5054060;28;20465;-40
2022/06/09 05:00:31;;;;;;;43.85;28.63;;;14.20;99.90;;;;;;5065254;28;20048;-40
2022/06/09 05:02:59;;;;;;;40.55;28.02;;;14.20;99.90;;;;;;5066308;28;20067;-40
2022/06/09 05:05:33;;;;;;;43.33;28.67;;;14.10;99.90;;;;;;5066192;28;20045;-40
2022/06/09 05:08:00;;;;;;;42.75;29.10;;;14.20;99.90;;;;;;5049228;28;20511;-41
2022/06/09 05:10:27;;;;;;;41.50;29.05;;;14.20;99.90;;;;;;5066019;28;20099;-41
2022/06/09 05:12:53;;;;;;;45.67;30.60;;;14.20;99.90;;;;;;5065884;28;20044;-40
2022/06/09 05:15:21;;;;;;;46.92;30.33;;;14.20;99.90;;;;;;5062880;28;20070;-40
2022/06/09 05:17:47;;;;;;;46.95;32.13;;;14.20;99.90;;;;;;5051305;28;20044;-39
2022/06/09 05:20:15;;;;;;;44.15;28.65;;;14.30;99.90;;;;;;5065433;28;20048;-40
2022/06/09 05:22:41;;;;;;;46.38;30.77;;;14.30;99.90;;;;;;5066463;28;20059;-40
2022/06/09 05:25:08;;;;;;;47.40;32.00;;;14.30;99.90;;;;;;5061192;28;20044;-40
2022/06/09 05:27:35;;;;;;;44.10;31.10;;;14.40;99.90;;;;;;5048311;28;20056;-41
2022/06/09 05:30:01;;;;;;;51.08;32.60;;;14.40;99.90;;;;;;5065979;28;20045;-40
2022/06/09 05:32:27;;;;;;;49.67;30.77;;;14.40;99.90;;;;;;5063816;28;20053;-41
2022/06/09 05:34:52;;;;;;;50.75;31.88;;;14.50;99.90;;;;;;5066228;28;20059;-40
2022/06/09 05:37:18;;;;;;;47.97;30.33;;;14.50;99.90;;;;;;5050595;28;20067;-41
2022/06/09 05:45:14;;;;;;;44.65;29.40;;;14.60;99.90;;;;;;5065312;28;20059;-40
2022/06/09 05:47:40;;;;;;;47.63;29.05;;;14.60;99.90;;;;;;5049952;28;20041;-41
2022/06/09 05:50:07;;;;;;;44.00;28.65;;;14.60;99.90;;;;;;5070647;28;20037;-40
2022/06/09 05:52:33;;;;;;;41.72;29.08;;;14.60;99.90;;;;;;5065331;28;20044;-41
2022/06/09 05:54:59;;;;;;;39.88;27.85;;;14.60;99.90;;;;;;5066458;28;20044;-41
2022/06/09 05:57:27;;;;;;;42.13;27.77;;;14.60;99.90;;;;;;5053003;28;20045;-41
2022/06/09 05:59:53;;;;;;;38.05;26.13;;;14.60;99.90;;;;;;5064498;28;20492;-40
2022/06/09 06:02:22;;;;;;;36.08;24.75;;;14.60;99.90;;;;;;5063124;28;20044;-40
2022/06/09 06:04:48;;;;;;;38.25;26.88;;;14.60;99.90;;;;;;5066827;28;20115;-40
2022/06/09 06:07:14;;;;;;;33.75;23.40;;;14.60;99.90;;;;;;5050649;28;20128;-39
2022/06/09 06:09:40;;;;;;;28.98;23.00;;;14.60;99.90;;;;;;5065461;28;20047;-40
2022/06/09 06:12:07;;;;;;;28.00;22.80;;;14.60;99.90;;;;;;5047801;28;20052;-41
2022/06/09 06:14:32;;;;;;;34.28;24.27;;;14.60;99.90;;;;;;5068823;28;20048;-40
2022/06/09 06:16:58;;;;;;;32.42;24.35;;;14.70;99.90;;;;;;5052558;28;20052;-40
2022/06/09 06:19:24;;;;;;;29.70;23.30;;;14.70;99.90;;;;;;5074769;28;20048;-39
2022/06/09 06:21:51;;;;;;;33.53;25.27;;;14.80;99.90;;;;;;5068497;28;20409;-40
2022/06/09 06:24:19;;;;;;;32.50;23.63;;;14.80;99.90;;;;;;5068923;28;20051;-40
2022/06/09 06:26:45;;;;;;;31.52;24.15;;;14.80;99.90;;;;;;5054669;28;20052;-41
2022/06/09 06:29:17;;;;;;;29.83;21.17;;;14.90;99.90;;;;;;5070088;28;20041;-41
2022/06/09 06:31:43;;;;;;;30.17;21.83;;;15.00;99.90;;;;;;5066829;28;20071;-41
2022/06/09 06:34:09;;;;;;;28.10;22.08;;;15.00;99.90;;;;;;5068815;28;20037;-41
2022/06/09 06:36:35;;;;;;;29.10;21.70;;;15.00;99.90;;;;;;5055632;28;20564;-41
2022/06/09 06:39:01;;;;;;;28.02;21.10;;;15.10;99.90;;;;;;5067876;28;20065;-41
2022/06/09 06:41:27;;;;;;;21.98;17.67;;;15.10;99.90;;;;;;5052852;28;20102;-41
2022/06/09 06:43:52;;;;;;;23.10;18.80;;;15.10;99.90;;;;;;5068226;28;20044;-42
2022/06/09 06:46:19;;;;;;;24.02;18.83;;;15.10;99.90;;;;;;5059100;28;20248;-43
2022/06/09 06:48:46;;;;;;;25.33;19.38;;;15.20;99.90;;;;;;5046637;28;20055;-42
2022/06/09 06:51:12;;;;;;;23.50;18.58;;;15.20;99.90;;;;;;5051820;28;20056;-42
2022/06/09 06:53:38;;;;;;;23.80;18.95;;;15.20;99.90;;;;;;5068300;28;20520;-42
2022/06/09 06:56:05;;;;;;;20.60;15.90;;;15.30;99.90;;;;;;5070799;28;20561;-42
2022/06/09 06:58:31;;;;;;;19.85;14.38;;;15.30;99.90;;;;;;5052315;28;20101;-41
2022/06/09 07:00:58;;;;;;;18.25;12.95;;;15.40;99.90;;;;;;5068632;28;20060;-42
2022/06/09 07:03:24;;;;;;;18.23;14.73;;;15.40;99.90;;;;;;5066543;28;20052;-42
2022/06/09 07:05:50;;;;;;;18.52;14.35;;;15.50;99.90;;;;;;5069508;28;20526;-42
2022/06/09 07:08:16;;;;;;;20.95;15.10;;;15.50;99.90;;;;;;5051860;28;20044;-42
2022/06/09 07:10:44;;;;;;;18.52;13.50;;;15.60;99.90;;;;;;5069796;28;20052;-41
2022/06/09 07:13:10;;;;;;;18.60;13.95;;;15.70;99.90;;;;;;5068061;28;20101;-42
2022/06/09 07:15:37;;;;;;;17.40;13.68;;;15.70;99.90;;;;;;5069276;28;20103;-41
2022/06/09 07:18:02;;;;;;;13.73;11.43;;;15.70;99.90;;;;;;5052082;28;20067;-42
2022/06/09 07:20:28;;;;;;;14.98;10.63;;;15.80;99.90;;;;;;5072003;28;20052;-41
2022/06/09 07:22:55;;;;;;;10.82;8.40;;;15.90;99.90;;;;;;5069794;28;20061;-41
2022/06/09 07:25:23;;;;;;;10.45;6.72;;;15.90;99.90;;;;;;5068317;28;20036;-41
2022/06/09 07:27:51;;;;;;;9.85;7.00;;;16.00;99.90;;;;;;5053872;28;20137;-41
2022/06/09 07:30:17;;;;;;;10.32;7.13;;;16.00;99.90;;;;;;5068985;28;20439;-41
2022/06/09 07:32:43;;;;;;;8.95;6.35;;;16.00;99.90;;;;;;5066379;28;20047;-41
2022/06/09 07:35:11;;;;;;;7.30;5.50;;;16.10;99.90;;;;;;5068676;28;20044;-41
2022/06/09 07:37:37;;;;;;;8.45;5.20;;;16.10;99.90;;;;;;5053642;28;20537;-41
2022/06/09 07:40:04;;;;;;;6.97;4.72;;;16.20;99.90;;;;;;5068575;28;20037;-41
2022/06/09 07:42:30;;;;;;;8.75;4.80;;;16.20;99.90;;;;;;5066840;28;20431;-41
2022/06/09 07:44:57;;;;;;;8.55;4.68;;;16.30;99.90;;;;;;5071429;28;21369;-41
2022/06/09 07:47:23;;;;;;;5.63;3.75;;;16.30;99.90;;;;;;5049882;28;20052;-43
2022/06/09 07:49:49;;;;;;;6.72;3.97;;;16.30;99.90;;;;;;5072079;28;20069;-40
2022/06/09 07:52:16;;;;;;;4.78;3.95;;;16.40;99.90;;;;;;5066690;28;20052;-41
2022/06/09 07:54:41;;;;;;;6.05;3.47;;;16.40;99.90;;;;;;5067397;28;20484;-40
2022/06/09 07:57:07;;;;;;;6.57;3.83;;;16.40;99.90;;;;;;4998770;28;20176;-41
2022/06/09 07:59:34;;;;;;;7.00;3.80;;;16.50;99.90;;;;;;5069943;28;20259;-40
2022/06/09 08:02:00;;;;;;;7.10;3.53;;;16.50;99.90;;;;;;5066163;28;20049;-40
2022/06/09 08:04:26;;;;;;;7.53;3.75;;;16.50;99.90;;;;;;5047688;28;20147;-40
2022/06/09 08:06:52;;;;;;;5.63;3.17;;;16.60;99.90;;;;;;5051760;28;20040;-41
2022/06/09 08:09:18;;;;;;;5.68;3.03;;;16.60;99.90;;;;;;5066067;28;20492;-40
2022/06/09 08:11:45;;;;;;;4.57;2.70;;;16.70;99.90;;;;;;5066979;28;20423;-40
2022/06/09 08:14:11;;;;;;;6.45;2.58;;;16.70;99.90;;;;;;5065876;28;20064;-40
2022/06/09 08:16:38;;;;;;;5.55;1.70;;;16.70;99.90;;;;;;5053494;28;20414;-41
2022/06/09 08:19:05;;;;;;;8.00;2.03;;;16.80;99.90;;;;;;5064899;28;20048;-40
2022/06/09 08:21:31;;;;;;;5.05;1.67;;;16.80;99.90;;;;;;5068567;28;20056;-41
2022/06/09 08:23:58;;;;;;;3.92;1.10;;;16.90;99.90;;;;;;5067770;28;20052;-40
2022/06/09 08:26:23;;;;;;;2.58;1.20;;;16.90;99.90;;;;;;5054288;28;20591;-42
2022/06/09 08:28:49;;;;;;;4.38;1.38;;;16.90;99.90;;;;;;5064388;28;20202;-40
2022/06/09 08:31:15;;;;;;;7.43;1.40;;;16.90;99.90;;;;;;5064723;28;20040;-40
2022/06/09 08:33:41;;;;;;;3.72;1.15;;;17.00;99.90;;;;;;5065461;28;20044;-41
2022/06/09 08:36:07;;;;;;;5.60;1.15;;;17.00;99.90;;;;;;5064873;28;20028;-41
2022/06/09 08:38:33;;;;;;;3.25;1.00;;;17.00;99.90;;;;;;5053413;28;20578;-40
2022/06/09 08:41:19;;;;;;;5.78;1.48;;;17.10;99.90;;;;;;5066284;28;20072;-40
2022/06/09 08:44:13;;;;;;;4.07;1.08;;;17.10;99.90;;;;;;5065481;28;20099;-40
2022/06/09 08:46:49;;;;;;;3.25;1.20;;;17.10;99.90;;;;;;5050032;28;20059;-41
2022/06/09 08:49:44;;;;;;;6.70;1.23;;;17.20;99.90;;;;;;5064492;28;20476;-41
2022/06/09 08:52:28;;;;;;;7.13;1.33;;;17.20;99.90;;;;;;5064326;28;20051;-41
2022/06/09 08:54:57;;;;;;;5.20;1.40;;;17.30;99.90;;;;;;5066094;28;20106;-41
2022/06/09 08:57:30;;;;;;;5.22;1.17;;;17.30;99.90;;;;;;5051808;28;20074;-41
2022/06/09 08:59:58;;;;;;;4.85;1.30;;;17.30;99.90;;;;;;5066822;28;20462;-40
2022/06/09 09:02:34;;;;;;;5.78;1.15;;;17.40;99.90;;;;;;5065151;28;20498;-41
2022/06/09 09:05:23;;;;;;;3.97;0.90;;;17.40;99.90;;;;;;5066690;28;20079;-41
2022/06/09 09:07:56;;;;;;;5.13;0.90;;;17.40;99.90;;;;;;5048485;28;20131;-41
2022/06/09 09:10:51;;;;;;;5.20;1.10;;;17.50;99.90;;;;;;5066230;28;20523;-41
2022/06/09 09:13:17;;;;;;;6.35;1.20;;;17.60;99.90;;;;;;5063522;28;20040;-41
2022/06/09 09:15:46;;;;;;;5.93;1.00;;;17.60;99.90;;;;;;5066486;28;20052;-41
2022/06/09 09:18:30;;;;;;;5.50;0.98;;;17.60;99.90;;;;;;5048958;28;20575;-41
2022/06/09 09:21:08;;;;;;;3.95;0.90;;;17.70;99.90;;;;;;5066149;28;20056;-41
2022/06/09 09:23:46;;;;;;;5.53;1.05;;;17.70;99.90;;;;;;5065335;28;20055;-41
2022/06/09 09:26:42;;;;;;;6.25;1.05;;;17.80;99.90;;;;;;5054718;28;20505;-41
2022/06/09 09:29:24;;;;;;;6.80;0.98;;;17.80;99.90;;;;;;5061473;28;20040;-41
2022/06/09 09:31:57;;;;;;;6.20;1.15;;;17.80;99.90;;;;;;5064714;28;20106;-41
2022/06/09 09:34:33;;;;;;;4.90;1.13;;;17.80;99.90;;;;;;5064671;28;20062;-40
2022/06/09 09:37:23;;;;;;;6.50;1.00;;;17.90;99.90;;;;;;5054654;28;20052;-41
2022/06/09 09:40:09;;;;;;;4.32;1.08;;;17.90;99.90;;;;;;5063235;28;20056;-41
2022/06/09 09:42:36;;;;;;;6.40;0.80;;;17.90;99.90;;;;;;5063417;28;20048;-40
2022/06/09 09:45:13;;;;;;;5.47;0.88;;;17.90;99.90;;;;;;5068663;28;20533;-40
2022/06/09 09:47:47;;;;;;;8.15;1.48;;;17.90;99.90;;;;;;5046747;28;20139;-41
2022/06/09 09:50:30;;;;;;;4.78;0.98;;;17.90;99.90;;;;;;5062232;28;20439;-41
2022/06/09 09:53:19;;;;;;;3.92;0.90;;;17.90;99.90;;;;;;5063748;28;20053;-40
2022/06/09 09:56:13;;;;;;;4.90;1.15;;;17.90;99.90;;;;;;5064686;28;20080;-41
2022/06/09 09:58:48;;;;;;;8.98;1.40;;;17.90;99.90;;;;;;5056925;28;20389;-41
2022/06/09 10:01:14;;;;;;;4.30;1.25;;;17.90;99.90;;;;;;5062514;28;20056;-41
2022/06/09 10:09:39;;;;;;;6.68;1.02;;;18.10;99.90;;;;;;5063876;28;20064;-43
2022/06/09 10:12:16;;;;;;;4.60;0.77;;;18.20;99.90;;;;;;5063789;28;20123;-43
2022/06/09 10:14:48;;;;;;;8.65;1.30;;;18.20;99.90;;;;;;5062510;28;20047;-40
2022/06/09 10:17:43;;;;;;;6.35;1.15;;;18.20;99.90;;;;;;5048447;28;20059;-40
2022/06/09 10:20:25;;;;;;;5.82;1.20;;;18.30;99.90;;;;;;5067732;28;20053;-40
2022/06/09 10:23:06;;;;;;;5.32;0.90;;;18.30;99.90;;;;;;5062150;28;20059;-40
2022/06/09 10:26:10;;;;;;;7.13;1.00;;;18.40;99.90;;;;;;5065599;28;20056;-40
2022/06/09 10:28:56;;;;;;;3.95;0.90;;;18.40;99.90;;;;;;5031492;28;20283;-41
2022/06/09 10:31:41;;;;;;;7.22;1.25;;;18.40;99.90;;;;;;5061875;28;20446;-40
2022/06/09 10:34:17;;;;;;;6.93;0.75;;;18.40;99.90;;;;;;5061718;28;20067;-40
2022/06/09 10:36:52;;;;;;;5.57;1.10;;;18.50;99.90;;;;;;5050507;28;20055;-43
2022/06/09 10:39:38;;;;;;;4.95;1.30;;;18.50;99.90;;;;;;5065203;28;20131;-41
2022/06/09 10:42:14;;;;;;;4.82;1.00;;;18.50;99.90;;;;;;5061004;28;20134;-41
2022/06/09 10:44:54;;;;;;;6.40;1.00;;;18.50;99.90;;;;;;5067227;28;20048;-41
2022/06/09 10:56:24;;;;;;;5.25;0.95;;;18.50;99.90;;;;;;5053501;28;20186;-41
2022/06/09 10:59:13;;;;;;;8.75;1.30;;;18.50;99.90;;;;;;5062271;28;20131;-40
2022/06/09 11:01:39;;;;;;;4.47;0.90;;;18.50;99.90;;;;;;5068269;28;20044;-41
2022/06/09 11:04:11;;;;;;;8.57;1.38;;;18.60;99.90;;;;;;5069795;28;20060;-40
2022/06/09 11:06:42;;;;;;;7.68;1.30;;;18.60;99.90;;;;;;5054883;28;20496;-41
2022/06/09 11:09:32;;;;;;;3.53;1.00;;;18.60;99.90;;;;;;5068324;28;20048;-40
2022/06/09 11:12:25;;;;;;;8.73;1.33;;;18.60;99.90;;;;;;5068696;28;20446;-40
2022/06/09 11:15:10;;;;;;;4.07;1.10;;;18.60;99.90;;;;;;5065807;28;20045;-40
2022/06/09 11:17:47;;;;;;;2.50;0.55;;;18.80;99.90;;;;;;5049253;28;20534;-41
2022/06/09 11:20:22;;;;;;;6.00;1.00;;;18.80;99.90;;;;;;5069697;28;20052;-41
2022/06/09 11:22:53;;;;;;;3.92;0.90;;;18.90;99.90;;;;;;5065664;28;20057;-41
2022/06/09 11:25:19;;;;;;;;;;;18.90;99.90;;;;;;5066778;28;20056;-40
2022/06/09 11:28:12;;;;;;;4.45;0.73;;;19.00;99.90;;;;;;5047693;28;20314;-41
2022/06/09 11:30:56;;;;;;;2.72;0.60;;;19.10;99.90;;;;;;5066484;28;20056;-41
2022/06/09 11:33:49;;;;;;;5.90;1.02;;;19.10;99.90;;;;;;5067295;28;20419;-40
2022/06/09 11:36:27;;;;;;;2.97;0.52;;;19.20;99.90;;;;;;5057721;28;20113;-41
2022/06/09 11:39:19;;;;;;;5.45;0.70;;;19.20;99.90;;;;;;5063171;28;20522;-40
2022/06/09 11:42:04;;;;;;;2.40;0.63;;;19.10;99.90;;;;;;5072454;28;20454;-40
2022/06/09 11:44:36;;;;;;;3.63;0.65;;;19.10;99.90;;;;;;5067511;28;20028;-40
2022/06/09 11:47:24;;;;;;;3.50;0.75;;;19.20;99.90;;;;;;5052826;28;20127;-41
2022/06/09 11:49:57;;;;;;;2.35;0.63;;;19.20;99.90;;;;;;5068975;28;20044;-41
2022/06/09 11:52:28;;;;;;;5.45;0.82;;;19.20;99.90;;;;;;5065894;28;20051;-41
2022/06/09 11:54:55;;;;;;;4.32;0.80;;;19.30;99.90;;;;;;5067288;28;20121;-41
2022/06/09 11:57:39;;;;;;;6.88;0.85;;;19.20;99.90;;;;;;5052024;28;20061;-41
2022/06/09 12:00:26;;;;;;;6.22;0.93;;;19.30;99.90;;;;;;5063568;28;20056;-41
2022/06/09 12:03:08;;;;;;;3.00;0.55;;;19.40;99.90;;;;;;5071109;28;20040;-41
2022/06/09 12:05:52;;;;;;;3.90;0.82;;;19.30;99.90;;;;;;5066844;28;20051;-41
2022/06/09 12:08:57;;;;;;;5.75;0.90;;;19.40;99.90;;;;;;5048108;28;20048;-41
2022/06/09 12:11:25;;;;;;;4.78;0.82;;;19.40;99.90;;;;;;5066876;28;20052;-41
2022/06/09 12:14:01;;;;;;;5.35;0.75;;;19.60;99.90;;;;;;5065792;28;20455;-41
2022/06/09 12:16:54;;;;;;;3.38;0.75;;;19.60;99.90;;;;;;5052284;28;20048;-42
2022/06/09 12:19:24;;;;;;;4.30;1.10;;;19.60;99.90;;;;;;5065914;28;20044;-41
2022/06/09 12:21:55;;;;;;;3.95;0.90;;;19.70;99.90;;;;;;5066348;28;20056;-41
2022/06/09 12:24:46;;;;;;;6.70;0.77;;;19.70;99.90;;;;;;5065035;28;20052;-41
2022/06/09 12:27:35;;;;;;;3.85;0.68;;;19.70;99.90;;;;;;5048959;28;20071;-42
2022/06/09 12:30:01;;;;;;;2.55;0.65;;;19.60;99.90;;;;;;5069244;28;20040;-41
2022/06/09 12:32:49;;;;;;;3.90;0.65;;;19.60;99.90;;;;;;5065605;28;20109;-41
2022/06/09 12:35:35;;;;;;;2.90;0.70;;;19.60;99.90;;;;;;5064613;28;20098;-41
2022/06/09 12:38:19;;;;;;;5.30;0.90;;;19.60;99.90;;;;;;5050555;28;20058;-41
2022/06/09 12:40:49;;;;;;;2.22;0.80;;;19.60;99.90;;;;;;5066471;28;20052;-41
2022/06/09 12:43:30;;;;;;;4.45;0.85;;;19.50;99.90;;;;;;5065750;28;20233;-41
2022/06/09 12:46:00;;;;;;;5.28;1.25;;;19.40;99.90;;;;;;5064712;28;20060;-41
2022/06/09 12:48:29;;;;;;;5.15;0.88;;;19.30;99.90;;;;;;5052287;28;20057;-41
2022/06/09 12:50:55;;;;;;;3.63;1.00;;;19.10;99.90;;;;;;5068017;28;20068;-41
2022/06/09 12:53:33;;;;;;;6.25;1.08;;;19.20;99.90;;;;;;5065475;28;20044;-41
2022/06/09 12:56:28;;;;;;;4.55;1.20;;;19.20;99.90;;;;;;5065515;28;20507;-41
2022/06/09 12:58:55;;;;;;;5.20;1.20;;;19.20;99.90;;;;;;5063513;28;20052;-41
2022/06/09 13:01:29;;;;;;;5.38;1.10;;;19.40;99.90;;;;;;5064959;28;20085;-41
2022/06/09 13:03:59;;;;;;;6.25;1.35;;;19.30;99.90;;;;;;5062774;28;20241;-41
2022/06/09 13:06:38;;;;;;;8.88;1.17;;;19.30;99.90;;;;;;5055261;28;20067;-41
2022/06/09 13:09:19;;;;;;;3.53;1.00;;;19.40;99.90;;;;;;5062817;28;20155;-41
2022/06/09 13:14:34;;;;;;;3.50;0.88;;;19.40;99.90;;;;;;5064217;28;20096;-41
2022/06/09 13:17:07;;;;;;;4.15;1.00;;;19.40;99.90;;;;;;5050378;28;20040;-41
2022/06/09 13:19:33;;;;;;;3.97;1.17;;;19.30;99.90;;;;;;5064253;28;20147;-40